createdAt,value
2022-11-10T00:00:48.387Z,36.63
2022-11-10T00:03:35.510Z,36.47
2022-11-10T00:06:21.853Z,37.00
2022-11-10T00:09:07.868Z,35.55
2022-11-10T00:11:54.423Z,37.55
2022-11-10T00:14:58.986Z,38.50
2022-11-10T00:17:45.683Z,37.03
2022-11-10T00:20:32.238Z,37.38
2022-11-10T00:23:18.833Z,39.45
2022-11-10T00:26:11.788Z,37.28
2022-11-10T00:28:57.685Z,37.63
2022-11-10T00:31:43.642Z,36.72
2022-11-10T00:34:29.763Z,35.30
2022-11-10T00:37:15.474Z,37.38
2022-11-10T00:40:01.808Z,35.83
2022-11-10T00:42:48.039Z,39.17
2022-11-10T00:45:34.092Z,35.70
2022-11-10T00:48:20.080Z,38.72
2022-11-10T00:51:07.396Z,40.08
2022-11-10T00:53:53.410Z,38.17
2022-11-10T00:56:39.296Z,37.28
2022-11-10T00:59:24.890Z,37.78
2022-11-10T01:02:11.174Z,37.15
2022-11-10T01:04:57.562Z,40.70
2022-11-10T01:07:43.598Z,38.25
2022-11-10T01:10:29.832Z,39.97
2022-11-10T01:13:15.904Z,38.42
2022-11-10T01:16:12.616Z,39.47
2022-11-10T01:19:00.766Z,35.90
2022-11-10T01:21:47.049Z,38.28
2022-11-10T01:24:33.333Z,40.50
2022-11-10T01:27:19.225Z,37.13
2022-11-10T01:30:05.468Z,39.08
2022-11-10T01:32:51.204Z,38.50
2022-11-10T01:35:38.242Z,40.40
2022-11-10T01:38:27.572Z,38.72
2022-11-10T01:41:14.249Z,39.30
2022-11-10T01:44:22.266Z,40.03
2022-11-10T01:47:08.237Z,38.53
2022-11-10T01:49:54.539Z,39.38
2022-11-10T01:52:42.315Z,40.83
2022-11-10T01:55:29.266Z,38.70
2022-11-10T01:58:17.090Z,41.25
2022-11-10T02:01:03.181Z,37.92
2022-11-10T02:04:08.591Z,35.92
2022-11-10T02:06:54.952Z,34.47
2022-11-10T02:09:40.980Z,30.00
2022-11-10T02:12:39.640Z,29.00
2022-11-10T02:15:26.454Z,27.90
2022-11-10T02:18:12.368Z,26.77
2022-11-10T02:20:58.029Z,26.95
2022-11-10T02:23:45.564Z,27.23
2022-11-10T02:26:32.003Z,25.20
2022-11-10T02:29:17.645Z,26.87
2022-11-10T02:32:04.000Z,26.42
2022-11-10T02:34:49.971Z,28.27
2022-11-10T02:37:35.827Z,26.80
2022-11-10T02:40:21.767Z,26.42
2022-11-10T02:43:11.101Z,27.05
2022-11-10T02:45:56.869Z,25.62
2022-11-10T02:48:43.065Z,26.20
2022-11-10T02:51:29.491Z,27.10
2022-11-10T02:54:15.300Z,27.25
2022-11-10T02:57:02.840Z,28.17
2022-11-10T02:59:50.640Z,27.25
2022-11-10T03:02:36.799Z,26.02
2022-11-10T03:05:23.383Z,27.08
2022-11-10T03:08:09.420Z,28.42
2022-11-10T03:10:56.121Z,26.45
2022-11-10T03:14:00.239Z,26.50
2022-11-10T03:16:47.615Z,26.92
2022-11-10T03:19:34.040Z,27.62
2022-11-10T03:22:19.937Z,28.62
2022-11-10T03:25:07.180Z,28.08
2022-11-10T03:27:53.378Z,31.42
2022-11-10T03:30:39.821Z,32.72
2022-11-10T03:33:26.114Z,31.90
2022-11-10T03:36:12.074Z,29.87
2022-11-10T03:38:58.046Z,32.85
2022-11-10T03:41:44.009Z,32.15
2022-11-10T03:44:30.061Z,31.52
2022-11-10T03:47:16.175Z,33.10
2022-11-10T03:50:02.745Z,32.58
2022-11-10T03:52:48.824Z,33.08
2022-11-10T03:55:34.751Z,31.67
2022-11-10T03:58:20.921Z,29.90
2022-11-10T04:01:06.749Z,28.83
2022-11-10T04:03:52.435Z,26.45
2022-11-10T04:06:57.346Z,26.37
2022-11-10T04:09:43.386Z,27.73
2022-11-10T04:12:47.956Z,29.33
2022-11-10T04:15:42.398Z,27.73
2022-11-10T04:18:29.783Z,28.55
2022-11-10T04:21:16.122Z,27.33
2022-11-10T04:24:02.004Z,28.45
2022-11-10T04:26:49.005Z,25.75
2022-11-10T04:29:35.313Z,27.58
2022-11-10T04:32:21.488Z,26.27
2022-11-10T04:35:07.769Z,25.73
2022-11-10T04:37:54.528Z,27.20
2022-11-10T04:40:40.472Z,27.33
2022-11-10T04:43:27.196Z,27.15
2022-11-10T04:46:23.453Z,26.95
2022-11-10T04:49:10.422Z,26.30
2022-11-10T04:51:56.330Z,26.73
2022-11-10T04:54:42.993Z,25.62
2022-11-10T04:57:29.003Z,24.55
2022-11-10T05:00:15.549Z,27.80
2022-11-10T05:03:03.383Z,26.67
2022-11-10T05:05:49.460Z,28.25
2022-11-10T05:08:35.776Z,26.67
2022-11-10T05:11:22.009Z,25.62
2022-11-10T05:14:08.162Z,25.37
2022-11-10T05:16:53.772Z,25.17
2022-11-10T05:19:40.225Z,26.58
2022-11-10T05:22:26.373Z,25.05
2022-11-10T05:25:12.449Z,25.85
2022-11-10T05:27:58.522Z,26.15
2022-11-10T05:30:45.000Z,24.45
2022-11-10T05:33:31.049Z,25.27
2022-11-10T05:36:17.471Z,25.42
2022-11-10T05:39:03.499Z,25.70
2022-11-10T05:41:49.587Z,24.40
2022-11-10T05:44:35.622Z,24.50
2022-11-10T05:47:21.134Z,25.02
2022-11-10T05:50:08.967Z,26.70
2022-11-10T05:52:55.861Z,24.45
2022-11-10T05:55:41.511Z,25.85
2022-11-10T05:58:27.649Z,24.30
2022-11-10T06:01:13.490Z,24.85
2022-11-10T06:03:59.740Z,23.90
2022-11-10T06:06:46.742Z,25.00
2022-11-10T06:09:33.144Z,24.05
2022-11-10T06:12:19.241Z,23.60
2022-11-10T06:15:05.856Z,24.17
2022-11-10T06:17:52.015Z,26.12
2022-11-10T06:20:38.172Z,25.55
2022-11-10T06:23:24.803Z,24.48
2022-11-10T06:26:11.081Z,25.88
2022-11-10T06:28:58.242Z,24.37
2022-11-10T06:31:43.928Z,24.35
2022-11-10T06:34:30.383Z,27.17
2022-11-10T06:37:16.373Z,24.77
2022-11-10T06:40:02.582Z,25.67
2022-11-10T06:42:49.125Z,24.77
2022-11-10T06:45:35.545Z,23.87
2022-11-10T06:48:21.665Z,26.33
2022-11-10T06:51:07.500Z,24.73
2022-11-10T06:53:53.713Z,24.85
2022-11-10T06:56:39.712Z,23.70
2022-11-10T06:59:25.580Z,23.95
2022-11-10T07:02:14.532Z,23.67
2022-11-10T07:05:00.563Z,22.70
2022-11-10T07:07:46.346Z,24.87
2022-11-10T07:10:33.236Z,26.65
2022-11-10T07:13:19.695Z,24.90
2022-11-10T07:16:07.895Z,26.12
2022-11-10T07:18:53.947Z,25.25
2022-11-10T07:21:42.201Z,24.50
2022-11-10T07:24:30.442Z,26.65
2022-11-10T07:27:16.906Z,26.80
2022-11-10T07:30:04.204Z,26.35
2022-11-10T07:33:06.330Z,25.05
2022-11-10T07:35:54.236Z,26.62
2022-11-10T07:38:40.338Z,27.00
2022-11-10T07:41:26.504Z,25.40
2022-11-10T07:44:12.581Z,25.33
2022-11-10T07:46:58.458Z,25.58
2022-11-10T07:49:44.188Z,25.73
2022-11-10T07:52:30.033Z,25.17
2022-11-10T07:55:16.530Z,25.83
2022-11-10T07:58:02.655Z,23.62
2022-11-10T08:00:48.757Z,24.50
2022-11-10T08:03:34.723Z,25.92
2022-11-10T08:06:21.191Z,25.75
2022-11-10T08:09:07.355Z,26.25
2022-11-10T08:11:53.570Z,23.25
2022-11-10T08:14:39.644Z,23.52
2022-11-10T08:17:25.387Z,25.50
2022-11-10T08:20:11.485Z,25.02
2022-11-10T08:23:01.896Z,25.48
2022-11-10T08:25:48.060Z,22.05
2022-11-10T08:28:33.911Z,24.92
2022-11-10T08:31:19.760Z,24.15
2022-11-10T08:34:05.827Z,23.10
2022-11-10T08:36:54.649Z,21.87
2022-11-10T08:39:41.015Z,20.40
2022-11-10T08:42:26.749Z,21.60
2022-11-10T08:45:14.018Z,22.85
2022-11-10T08:48:02.257Z,21.65
2022-11-10T08:50:49.654Z,20.50
2022-11-10T08:53:35.455Z,21.65
2022-11-10T08:56:22.011Z,20.42
2022-11-10T08:59:07.703Z,18.87
2022-11-10T09:01:53.846Z,20.50
2022-11-10T09:04:39.735Z,19.65
2022-11-10T09:07:25.686Z,20.35
2022-11-10T09:10:13.017Z,20.98
2022-11-10T09:13:03.388Z,19.40
2022-11-10T09:15:49.393Z,18.95
2022-11-10T09:18:35.962Z,18.50
2022-11-10T09:21:21.936Z,19.55
2022-11-10T09:24:07.942Z,19.52
2022-11-10T09:26:53.671Z,18.12
2022-11-10T09:29:39.478Z,19.87
2022-11-10T09:32:25.110Z,19.80
2022-11-10T09:35:11.071Z,20.00
2022-11-10T09:37:56.891Z,21.33
2022-11-10T09:40:56.049Z,17.60
2022-11-10T09:44:02.205Z,18.42
2022-11-10T09:47:08.313Z,18.55
2022-11-10T09:52:43.221Z,19.75
2022-11-10T09:55:44.950Z,19.52
2022-11-10T09:58:50.437Z,19.08
2022-11-10T10:01:50.098Z,20.08
2022-11-10T10:04:36.161Z,21.40
2022-11-10T10:07:28.919Z,18.83
2022-11-10T10:10:23.997Z,23.00
2022-11-10T10:13:37.673Z,25.25
2022-11-10T10:16:54.515Z,24.70
2022-11-10T10:19:50.007Z,24.85
2022-11-10T10:22:56.178Z,23.52
2022-11-10T10:25:43.808Z,25.85
2022-11-10T10:28:38.783Z,25.05
2022-11-10T10:31:27.164Z,22.15
2022-11-10T10:34:16.395Z,24.05
2022-11-10T10:37:02.596Z,21.17
2022-11-10T10:39:50.623Z,24.92
2022-11-10T10:42:37.787Z,24.08
2022-11-10T10:45:29.257Z,23.90
2022-11-10T10:48:29.473Z,25.42
2022-11-10T10:51:29.035Z,20.35
2022-11-10T10:54:25.484Z,22.92
2022-11-10T10:57:20.398Z,24.52
2022-11-10T11:00:18.427Z,23.53
2022-11-10T11:03:22.910Z,22.58
2022-11-10T11:06:15.553Z,23.55
2022-11-10T11:09:14.374Z,23.38
2022-11-10T11:12:10.329Z,24.67
2022-11-10T11:17:59.246Z,21.48
2022-11-10T11:21:13.221Z,22.35
2022-11-10T11:24:07.861Z,20.35
2022-11-10T11:27:02.957Z,20.30
2022-11-10T11:30:03.632Z,19.77
2022-11-10T11:33:08.044Z,18.92
2022-11-10T11:36:01.683Z,17.42
2022-11-10T11:39:00.724Z,17.08
2022-11-10T11:42:09.080Z,18.87
2022-11-10T11:45:10.743Z,20.00
2022-11-10T11:48:05.639Z,19.37
2022-11-10T11:50:56.054Z,20.17
2022-11-10T11:54:03.917Z,20.62
2022-11-10T11:56:50.800Z,21.95
2022-11-10T12:00:08.396Z,20.33
2022-11-10T12:03:19.288Z,21.02
2022-11-10T12:06:04.937Z,22.30
2022-11-10T12:09:28.560Z,19.95
2022-11-10T12:12:51.896Z,19.58
2022-11-10T12:16:15.949Z,21.08
2022-11-10T12:19:31.123Z,18.25
2022-11-10T12:22:38.879Z,17.92
2022-11-10T12:25:48.825Z,19.60
2022-11-10T12:28:38.189Z,18.90
2022-11-10T12:31:26.390Z,19.95
2022-11-10T12:34:29.474Z,18.92
2022-11-10T12:37:26.526Z,19.48
2022-11-10T12:40:21.075Z,20.55
2022-11-10T12:43:18.078Z,22.02
2022-11-10T12:46:12.375Z,19.55
2022-11-10T12:49:11.589Z,21.50
2022-11-10T12:52:03.959Z,18.95
2022-11-10T12:54:50.331Z,17.25
2022-11-10T12:57:37.451Z,19.83
2022-11-10T13:00:28.661Z,17.70
2022-11-10T13:03:25.308Z,21.62
2022-11-10T13:06:26.237Z,20.37
2022-11-10T13:09:29.037Z,19.05
2022-11-10T13:12:17.685Z,19.65
2022-11-10T13:15:40.764Z,18.98
2022-11-10T13:18:32.707Z,20.75
2022-11-10T13:21:18.864Z,21.45
2022-11-10T13:24:05.083Z,20.25
2022-11-10T13:26:55.410Z,22.62
2022-11-10T13:29:47.547Z,20.12
2022-11-10T13:32:34.684Z,19.77
2022-11-10T13:35:29.741Z,20.92
2022-11-10T13:38:32.888Z,20.15
2022-11-10T13:41:25.724Z,19.80
2022-11-10T13:44:29.437Z,18.92
2022-11-10T13:47:40.077Z,20.67
2022-11-10T13:51:06.435Z,20.65
2022-11-10T13:54:15.573Z,22.42
2022-11-10T13:57:22.027Z,20.02
2022-11-10T14:00:14.855Z,21.10
2022-11-10T14:03:08.228Z,22.05
2022-11-10T14:05:57.454Z,23.15
2022-11-10T14:08:53.060Z,21.35
2022-11-10T14:14:54.273Z,19.37
2022-11-10T14:17:49.124Z,19.60
2022-11-10T14:20:43.640Z,20.20
2022-11-10T14:23:31.973Z,24.95
2022-11-10T14:26:51.148Z,26.65
2022-11-10T14:29:39.304Z,33.05
2022-11-10T14:32:27.063Z,26.52
2022-11-10T14:35:22.188Z,59.40
2022-11-10T14:38:20.848Z,27.13
2022-11-10T14:41:07.097Z,39.70
2022-11-10T14:44:07.472Z,22.83
2022-11-10T14:46:54.634Z,19.67
2022-11-10T14:49:40.647Z,22.45
2022-11-10T14:52:27.531Z,17.75
2022-11-10T14:55:17.669Z,22.50
2022-11-10T14:58:15.049Z,22.15
2022-11-10T15:01:05.905Z,22.00
2022-11-10T15:03:52.221Z,22.60
2022-11-10T15:06:43.108Z,29.10
2022-11-10T15:09:32.803Z,26.77
2022-11-10T15:12:22.964Z,25.75
2022-11-10T15:15:19.710Z,23.75
2022-11-10T15:18:06.520Z,20.67
2022-11-10T15:21:06.275Z,23.30
2022-11-10T15:23:54.177Z,22.73
2022-11-10T15:26:40.900Z,21.40
2022-11-10T15:29:28.720Z,17.45
2022-11-10T15:32:17.038Z,20.67
2022-11-10T15:35:10.610Z,21.00
2022-11-10T15:38:18.095Z,22.08
2022-11-10T15:41:12.494Z,20.00
2022-11-10T15:44:14.450Z,22.20
2022-11-10T15:47:01.390Z,24.95
2022-11-10T15:49:48.017Z,20.67
2022-11-10T15:52:34.229Z,22.05
2022-11-10T15:55:23.865Z,21.62
2022-11-10T15:58:16.588Z,20.00
2022-11-10T16:01:03.197Z,20.15
2022-11-10T16:03:49.800Z,20.70
2022-11-10T16:06:35.842Z,25.10
2022-11-10T16:09:22.934Z,16.77
2022-11-10T16:12:20.031Z,19.73
2022-11-10T16:15:07.160Z,20.02
2022-11-10T16:17:53.463Z,21.45
2022-11-10T16:20:39.828Z,18.05
2022-11-10T16:23:28.494Z,19.00
2022-11-10T16:26:17.798Z,18.33
2022-11-10T16:29:03.628Z,19.60
2022-11-10T16:31:50.726Z,20.10
2022-11-10T16:34:36.936Z,19.45
2022-11-10T16:37:23.164Z,17.98
2022-11-10T16:40:17.925Z,18.40
2022-11-10T16:43:03.953Z,20.23
2022-11-10T16:45:51.945Z,19.45
2022-11-10T16:48:37.904Z,21.08
2022-11-10T16:51:34.803Z,20.73
2022-11-10T16:57:55.741Z,19.27
2022-11-10T17:00:43.656Z,18.92
2022-11-10T17:03:36.679Z,19.12
2022-11-10T17:06:25.292Z,21.15
2022-11-10T17:09:18.424Z,19.25
2022-11-10T17:12:05.323Z,20.05
2022-11-10T17:14:52.114Z,19.67
2022-11-10T17:17:40.283Z,21.60
2022-11-10T17:20:35.219Z,18.73
2022-11-10T17:23:24.250Z,22.65
2022-11-10T17:26:13.824Z,19.20
2022-11-10T17:29:00.562Z,21.77
2022-11-10T17:31:47.493Z,19.98
2022-11-10T17:34:35.527Z,20.27
2022-11-10T17:37:24.374Z,17.75
2022-11-10T17:40:21.531Z,19.48
2022-11-10T17:43:12.716Z,17.83
2022-11-10T17:45:59.051Z,19.10
2022-11-10T17:48:47.319Z,18.50
2022-11-10T17:51:35.334Z,18.65
2022-11-10T17:54:21.748Z,20.98
2022-11-10T17:57:10.419Z,18.70
2022-11-10T17:59:57.026Z,18.23
2022-11-10T18:02:45.448Z,19.65
2022-11-10T18:05:31.887Z,18.20
2022-11-10T18:08:18.289Z,18.65
2022-11-10T18:11:05.154Z,16.87
2022-11-10T18:13:51.877Z,18.33
2022-11-10T18:16:38.845Z,18.83
2022-11-10T18:19:25.933Z,18.70
2022-11-10T18:22:12.643Z,19.10
2022-11-10T18:24:58.940Z,17.30
2022-11-10T18:27:45.057Z,17.42
2022-11-10T18:30:35.290Z,19.50
2022-11-10T18:33:22.856Z,18.00
2022-11-10T18:36:09.343Z,20.05
2022-11-10T18:38:55.905Z,19.50
2022-11-10T18:41:51.061Z,19.48
2022-11-10T18:47:24.009Z,20.12
2022-11-10T18:50:10.334Z,20.17
2022-11-10T18:52:57.598Z,21.35
2022-11-10T18:55:53.778Z,20.58
2022-11-10T18:58:40.210Z,18.67
2022-11-10T19:01:26.754Z,18.95
2022-11-10T19:04:14.676Z,20.55
2022-11-10T19:07:01.050Z,18.67
2022-11-10T19:09:47.959Z,20.17
2022-11-10T19:12:34.644Z,20.48
2022-11-10T19:15:21.201Z,20.55
2022-11-10T19:18:08.861Z,18.90
2022-11-10T19:20:54.776Z,21.62
2022-11-10T19:23:41.462Z,21.12
2022-11-10T19:26:28.348Z,20.25
2022-11-10T19:29:16.870Z,21.02
2022-11-10T19:32:03.091Z,20.08
2022-11-10T19:34:49.824Z,19.75
2022-11-10T19:37:36.093Z,19.58
2022-11-10T19:40:23.052Z,19.60
2022-11-10T19:43:09.066Z,18.95
2022-11-10T19:45:55.203Z,18.90
2022-11-10T19:48:43.000Z,19.87
2022-11-10T19:51:29.380Z,18.30
2022-11-10T19:54:19.869Z,18.33
2022-11-10T19:57:07.251Z,18.80
2022-11-10T19:59:54.373Z,21.15
2022-11-10T20:02:45.681Z,19.27
2022-11-10T20:05:31.814Z,20.98
2022-11-10T20:08:17.767Z,21.37
2022-11-10T20:11:12.511Z,20.37
2022-11-10T20:14:00.932Z,20.62
2022-11-10T20:16:47.155Z,20.60
2022-11-10T20:19:40.769Z,20.77
2022-11-10T20:22:27.827Z,20.10
2022-11-10T20:25:14.319Z,20.73
2022-11-10T20:28:06.093Z,20.77
2022-11-10T20:30:55.821Z,22.50
2022-11-10T20:33:42.515Z,21.23
2022-11-10T20:36:31.255Z,22.92
2022-11-10T20:39:18.156Z,22.73
2022-11-10T20:42:05.125Z,21.98
2022-11-10T20:44:51.278Z,23.85
2022-11-10T20:47:37.500Z,21.52
2022-11-10T20:50:24.782Z,19.85
2022-11-10T20:53:12.953Z,19.75
2022-11-10T20:56:00.882Z,19.62
2022-11-10T20:58:46.919Z,18.87
2022-11-10T21:01:33.681Z,19.25
2022-11-10T21:04:19.518Z,19.35
2022-11-10T21:07:05.436Z,18.45
2022-11-10T21:09:51.575Z,20.00
2022-11-10T21:12:49.388Z,20.02
2022-11-10T21:15:38.177Z,20.92
2022-11-10T21:18:26.216Z,19.62
2022-11-10T21:21:22.940Z,21.17
2022-11-10T21:24:10.133Z,20.25
2022-11-10T21:26:57.007Z,21.25
2022-11-10T21:29:43.017Z,21.58
2022-11-10T21:32:29.162Z,19.70
2022-11-10T21:35:15.347Z,20.12
2022-11-10T21:38:01.482Z,19.37
2022-11-10T21:40:47.411Z,18.90
2022-11-10T21:43:33.490Z,18.10
2022-11-10T21:46:19.344Z,19.15
2022-11-10T21:49:07.833Z,18.67
2022-11-10T21:51:53.669Z,18.23
2022-11-10T21:54:39.337Z,18.15
2022-11-10T21:57:25.300Z,17.73
2022-11-10T22:00:12.535Z,16.35
2022-11-10T22:02:59.959Z,17.12
2022-11-10T22:05:46.073Z,17.67
2022-11-10T22:08:32.384Z,17.58
2022-11-10T22:11:38.748Z,17.45
2022-11-10T22:14:43.076Z,18.85
2022-11-10T22:17:49.966Z,17.87
2022-11-10T22:20:38.765Z,19.52
2022-11-10T22:23:44.441Z,19.95
2022-11-10T22:29:16.376Z,22.55
2022-11-10T22:32:02.703Z,24.25
2022-11-10T22:34:48.573Z,21.20
2022-11-10T22:37:34.260Z,21.60
2022-11-10T22:40:38.584Z,21.98
2022-11-10T22:43:42.904Z,22.30
2022-11-10T22:46:29.291Z,23.85
2022-11-10T22:49:16.385Z,21.48
2022-11-10T22:52:02.192Z,22.20
2022-11-10T22:54:48.395Z,23.52
2022-11-10T22:57:34.009Z,22.20
2022-11-10T23:00:20.099Z,23.95
2022-11-10T23:03:06.151Z,22.25
2022-11-10T23:05:56.047Z,21.33
2022-11-10T23:08:43.424Z,23.20
2022-11-10T23:11:30.858Z,20.60
2022-11-10T23:14:16.627Z,20.08
2022-11-10T23:17:02.309Z,21.08
2022-11-10T23:19:48.096Z,20.90
2022-11-10T23:22:33.856Z,21.95
2022-11-10T23:25:19.560Z,20.77
2022-11-10T23:28:05.479Z,21.15
2022-11-10T23:30:51.180Z,21.10
2022-11-10T23:33:38.142Z,21.85
2022-11-10T23:36:25.669Z,21.08
2022-11-10T23:39:13.279Z,20.55
2022-11-10T23:41:59.313Z,18.25
2022-11-10T23:44:45.122Z,16.33
2022-11-10T23:47:30.992Z,17.95
2022-11-10T23:50:16.954Z,16.08
2022-11-10T23:53:02.782Z,15.05
2022-11-10T23:55:59.334Z,16.45
2022-11-10T23:58:45.310Z,14.65
